Hit Tracker is now ESPN Home Run Tracker! Hit Tracker founder Greg Rybarczyk is now collaborating with the ESPN Stats & Information Group to continue tracking all MLB home runs, and helping baseball fans know "How Far It Really Went!™" Please credit any information on this site to ESPN Stats & Information Group. For more information and analysis on home runs, please contact founder Greg Rybarczyk. E-Mail ESPN Home Run Tracker
Main Page | Ballparks | Park Overlays | Glossary | Highlight Homers | Feedback | Bio | 3 Types of HR's | AAA Home Run Derby Last Updated: July 24, 2016, 9:18 pm PST
If you want to know "How Far It Really Went!", then you've come to the right place! Welcome to the ESPN Home Run Tracker, where you can find accurate, transparently verifiable distances for every home run hit in MLB games. Please also check out the ESPN MLB Scoreboard throughout the 2016 season! Contact us at grybar@hittrackeronline.com.
Season:
Ballpark detail for Coors Field
Ballpark # of Home Runs HR per game Avg.
True
Distance
Avg.
Speed
Off
Bat
Avg.
Std.
Dist.
Coors Field 135 2.76 421 105.5 409.1

Scatter Plot of Home Runs Coors Field
 Overlay Ballpark:
Without range rings   With range rings

2016 Season Home Runs for Coors Field
Click headers to sort
Date Video Path Hitter Hitter
Team
Pitcher Pitcher
Team
INN ^ Ballpark Type/
Luck
True
Dist.
Speed
Off
Bat
Elev.
Angle
Horiz.
Angle
Apex Impact Due To: Std.
Dist.
#
Parks
Wind Temp. Alt.
04/10/16 Video View Gonzalez, Carlos COL Shields, James SD 1 Coors Field JE 368 99.8 27.1 119.1 66 1 -1 7 360 13
04/10/16 Video View Arenado, Nolan COL Shields, James SD 1 Coors Field ND 471 110.8 28.0 100.1 105 3 0 15 454 30
04/22/16 Video View Seager, Corey LAD Gray, Jon COL 1 Coors Field PL 433 102.9 27.7 89.0 90 3 0 10 420 27
04/22/16 Video View Gonzalez, Adrian LAD Gray, Jon COL 1 Coors Field ND 420 105.9 30.1 62.6 92 3 1 14 403 30
04/26/16 Video View McCutchen, Andrew PIT De La Rosa, Jorge COL 1 Coors Field ND 437 111.3 24.3 105.6 79 -2 -3 7 433 30
04/26/16 Video View Freese, David PIT De La Rosa, Jorge COL 1 Coors Field JE 432 104.3 29.2 84.6 108 -4 -4 13 426 27
05/28/16 Video View Posey, Buster SF Butler, Eddie COL 1 Coors Field JE 422 100.5 30.6 82.0 98 7 0 14 402 21
05/30/16 Video View Cozart, Zack CIN Bettis, Chad COL 1 Coors Field ND 432 106.3 29.4 113.1 89 8 1 13 410 30
05/30/16 Video View Blackmon, Charlie COL Straily, Dan CIN 1 Coors Field ND 419 103.6 35.3 76.4 133 -5 2 25 395 30
05/31/16 Video View Blackmon, Charlie COL Moscot, Jon CIN 1 Coors Field PL 423 110.1 23.3 74.2 68 0 -1 5 419 29
05/31/16 Video View Arenado, Nolan COL Moscot, Jon CIN 1 Coors Field JE 367 100.2 28.2 123.7 70 -1 -1 8 361 29
06/10/16 Video View Arenado, Nolan COL Perdomo, Luis SD 1 Coors Field JE 379 100.3 27.2 67.0 72 -2 1 8 372 22
06/11/16 Video View Gonzalez, Carlos COL Johnson, Erik SD 1 Coors Field JE 395 103.3 25.7 69.5 68 1 2 7 386 27
06/25/16 Video View Blackmon, Charlie COL Miller, Shelby ARI 1 Coors Field PL 390 101.2 35.3 58.9 110 -2 2 19 370 30
06/27/16 Video View Travis, Devon TOR Gray, Jon COL 1 Coors Field JE 427 104.3 24.5 88.6 80 -1 1 5 421 26
07/24/16 Video View Arenado, Nolan COL Jenkins, Tyrell ATL 1 Coors Field PL 401 99.7 30.3 73.5 91 -1 2 12 387 27
04/23/16 Video View Ellis, A.J. LAD Chatwood, Tyler COL 2 Coors Field ND 425 110.5 25.4 115.0 73 2 -1 8 416 30
04/26/16 Video View McCutchen, Andrew PIT De La Rosa, Jorge COL 2 Coors Field PL 444 106.7 28.7 98.0 108 -2 -5 14 435 30
05/15/16 Video View Cespedes, Yoenis NYM Chatwood, Tyler COL 2 Coors Field PL 431 104.9 26.5 82.4 88 0 -2 9 424 29
05/29/16 Video View Story, Trevor COL Cueto, Johnny SF 2 Coors Field JE 400 105.0 24.0 74.3 66 0 0 5 395 26
05/31/16 Video View Gonzalez, Carlos COL Moscot, Jon CIN 2 Coors Field JE 383 105.9 23.1 111.9 58 0 -1 4 380 21
05/31/16 Video View LeMahieu, DJ COL Moscot, Jon CIN 2 Coors Field PL 436 107.3 22.9 88.5 74 1 -1 3 432 27
06/23/16 Video View Reynolds, Mark COL Greinke, Zack ARI 2 Coors Field JE 371 97.1 32.9 58.7 89 0 1 14 356 25
07/07/16 Video View Howard, Ryan PHI Bettis, Chad COL 2 Coors Field PL 406 100.4 28.7 76.0 86 0 3 10 392 23
07/07/16 Video View Reynolds, Mark COL Morgan, Adam PHI 2 Coors Field PL 381 95.9 36.9 70.9 115 5 5 22 351 1
07/09/16 Video View Joseph, Tommy PHI Anderson, Tyler COL 2 Coors Field PL 385 98.4 34.1 117.5 100 -2 6 17 364 25
07/23/16 Video View Story, Trevor COL Wisler, Matt ATL 2 Coors Field JE 427 106.3 23.8 97.0 72 0 0 4 422 28
04/13/16 Video View Arenado, Nolan COL Peavy, Jake SF 3 Coors Field PL 394 109.3 22.3 112.6 58 0 -1 4 390 30
04/09/16 Video View Kemp, Matt SD De La Rosa, Jorge COL 3 Coors Field ND 426 108.3 28.9 119.2 87 5 -2 12 411 30
04/24/16 Video View Pederson, Joc LAD Lyles, Jordan COL 3 Coors Field PL 393 98.4 40.0 71.1 135 30 -1 29 340 0
05/11/16 Video View Blackmon, Charlie COL Ray, Robbie ARI 3 Coors Field JE 399 99.5 30.4 75.7 96 0 -2 13 388 23
05/31/16 Video View Parra, Gerardo COL Wright, Daniel CIN 3 Coors Field PL 444 107.5 24.9 95.3 84 0 -1 7 438 30
06/02/16 Video View Cozart, Zack CIN Butler, Eddie COL 3 Coors Field PL 388 98.1 33.3 111.8 100 2 1 16 370 22
06/09/16 Video View Freese, David PIT Bettis, Chad COL 3 Coors Field PL 388 99.1 29.9 69.8 86 -5 2 11 377 25
06/23/16 Video View Lamb, Jake ARI Butler, Eddie COL 3 Coors Field PL 446 109.2 22.6 89.6 74 0 0 3 443 30
06/23/16 Video View Brito, Socrates ARI Butler, Eddie COL 3 Coors Field PL 446 105.9 26.8 86.7 93 0 0 0 446 30
06/26/16 Video View Blackmon, Charlie COL Corbin, Patrick ARI 3 Coors Field ND 440 107.7 28.9 72.2 98 -3 4 13 425 30
06/28/16 Video View Gonzalez, Carlos COL Happ, J.A. TOR 3 Coors Field ND 427 104.9 32.0 73.0 113 0 -2 19 410 30
06/29/16 Video View Donaldson, Josh TOR Anderson, Tyler COL 3 Coors Field PL 395 98.0 35.2 105.9 115 1 4 20 370 12
07/07/16 Video View Story, Trevor COL Morgan, Adam PHI 3 Coors Field ND 442 108.2 34.6 111.5 131 4 7 27 407 30
07/19/16 Video View Longoria, Evan TB Chatwood, Tyler COL 3 Coors Field ND 450 111.9 32.5 119.9 115 7 -2 22 426 30
04/08/16 Video View Story, Trevor COL Rea, Colin SD 4 Coors Field ND 409 103.7 36.1 120.6 118 11 0 24 377 30
04/09/16 Video View Kemp, Matt SD De La Rosa, Jorge COL 4 Coors Field PL 415 101.6 28.9 79.5 92 1 -1 11 404 28
04/09/16 Video View Spangenberg, Cory SD De La Rosa, Jorge COL 4 Coors Field JE 397 103.2 25.4 73.2 70 1 0 6 392 26
04/22/16 Video View Arenado, Nolan COL Kazmir, Scott LAD 4 Coors Field ND 435 109.4 28.8 116.8 90 4 0 13 419 30
04/22/16 Video View Raburn, Ryan COL Kazmir, Scott LAD 4 Coors Field JE 390 111.4 21.0 113.6 51 1 0 4 385 24
04/26/16 Video View Arenado, Nolan COL Cole, Gerrit PIT 4 Coors Field JE 427 106.5 23.3 95.3 77 0 -2 3 424 26
04/27/16 Video View Story, Trevor COL Niese, Jonathon PIT 4 Coors Field JE 424 103.7 26.7 89.6 100 -10 -3 8 424 27
04/27/16 Video View Arenado, Nolan COL Niese, Jonathon PIT 4 Coors Field PL 394 103.6 28.3 113.2 87 -9 -3 10 394 30
05/14/16 Video View Walker, Neil NYM Butler, Eddie COL 4 Coors Field PL 426 106.8 25.6 77.3 83 -2 -3 7 422 29
05/29/16 Video View Span, Denard SF Rusin, Chris COL 4 Coors Field ND 434 106.9 34.4 68.8 127 6 0 25 404 30
05/30/16 Video View Duvall, Adam CIN Bettis, Chad COL 4 Coors Field JE/L 398 95.1 35.7 84.1 117 16 1 19 364 1
06/02/16 Video View Duvall, Adam CIN Butler, Eddie COL 4 Coors Field PL 437 103.7 33.4 93.8 127 0 3 21 414 25
06/02/16 Video View Gonzalez, Carlos COL Simon, Alfredo CIN 4 Coors Field PL 453 109.0 23.9 92.0 80 0 1 6 447 30
06/02/16 Video View Arenado, Nolan COL Simon, Alfredo CIN 4 Coors Field JE 427 104.7 26.5 100.9 82 1 0 8 417 30
06/09/16 Video View LeMahieu, DJ COL Locke, Jeff PIT 4 Coors Field PL 420 105.5 27.0 108.3 82 0 2 9 408 30
06/10/16 Video View Upton Jr., Melvin SD Gray, Jon COL 4 Coors Field ND 450 106.1 36.3 104.3 139 27 4 30 396 30
06/14/16 Video View Story, Trevor COL Eovaldi, Nathan NYY 4 Coors Field JE 434 108.1 22.0 89.5 68 0 0 1 433 27
06/14/16 Video View Raburn, Ryan COL Eovaldi, Nathan NYY 4 Coors Field PL 385 97.3 34.2 68.6 104 2 2 18 364 18
06/28/16 Video View Tulowitzki, Troy TOR Butler, Eddie COL 4 Coors Field PL 454 108.7 27.0 99.0 98 -2 -2 11 444 30
07/24/16 Video View Story, Trevor COL Jenkins, Tyrell ATL 4 Coors Field PL 456 106.9 29.3 99.4 104 6 3 15 434 30
07/24/16 Video View LeMahieu, DJ COL Jenkins, Tyrell ATL 4 Coors Field PL 404 102.7 26.9 74.7 82 -6 1 8 399 29
04/12/16 Video View Pence, Hunter SF Chatwood, Tyler COL 5 Coors Field PL 455 106.6 29.3 98.6 104 11 -3 15 434 30
04/14/16 Video View Parra, Gerardo COL Cain, Matt SF 5 Coors Field JE 397 107.1 23.7 67.4 60 2 0 5 390 29
04/08/16 Video View Kemp, Matt SD Miller, Justin COL 5 Coors Field ND 457 110.0 26.9 100.5 99 -3 0 12 448 30
05/09/16 Video View Segura, Jean ARI Chatwood, Tyler COL 5 Coors Field JE 378 97.6 31.3 63.5 84 4 -2 12 363 25
05/09/16 Video View Lamb, Jake ARI Chatwood, Tyler COL 5 Coors Field ND 439 108.5 28.1 72.9 97 -3 -2 12 430 30
06/02/16 Video View Suarez, Eugenio CIN Qualls, Chad COL 5 Coors Field JE 388 99.2 29.0 70.0 80 2 0 10 377 23
06/11/16 Video View Blackmon, Charlie COL Johnson, Erik SD 5 Coors Field ND 413 107.4 29.7 53.8 86 -2 3 12 399 30
06/15/16 Video View Arenado, Nolan COL Nova, Ivan NYY 5 Coors Field JE 407 110.9 21.1 105.4 56 0 1 2 404 30
06/26/16 Video View Gonzalez, Carlos COL Corbin, Patrick ARI 5 Coors Field ND 434 109.1 30.7 57.7 97 2 4 15 413 30
07/07/16 Video View Story, Trevor COL Morgan, Adam PHI 5 Coors Field PL 446 114.5 21.6 101.8 66 0 1 4 442 30
07/09/16 Video View Anderson, Tyler COL Eickhoff, Jerad PHI 5 Coors Field PL 391 105.0 27.4 55.5 72 0 1 8 382 30
07/18/16 Video View Story, Trevor COL Smyly, Drew TB 5 Coors Field PL 414 102.4 31.8 105.8 108 -2 -1 17 400 30
04/12/16 Video View Brown, Trevor SF Chatwood, Tyler COL 6 Coors Field PL 404 103.9 31.9 112.6 108 -10 -4 17 398 30
04/08/16 Video View Upton Jr., Melvin SD Miller, Justin COL 6 Coors Field ND 434 110.0 29.8 118.6 97 -2 0 15 421 30
04/26/16 Video View McCutchen, Andrew PIT Bergman, Christian COL 6 Coors Field JE/L 387 106.2 22.9 70.8 59 0 -2 4 385 24
04/26/16 Video View Marte, Starling PIT Germen, Gonzalez COL 6 Coors Field ND 408 104.2 33.8 115.3 115 2 -8 21 392 30
05/15/16 Video View Gonzalez, Carlos COL deGrom, Jacob NYM 6 Coors Field JE 425 102.6 28.6 96.4 96 0 -1 11 415 27
05/31/16 Video View Bruce, Jay CIN Gray, Jon COL 6 Coors Field PL 448 111.5 20.9 88.9 70 0 -1 1 446 29
05/31/16 Video View Votto, Joey CIN Gray, Jon COL 6 Coors Field PL 388 99.7 33.9 111.6 110 -5 -3 18 375 29
05/31/16 Video View Arenado, Nolan COL Wright, Daniel CIN 6 Coors Field ND 406 109.6 26.2 125.9 71 0 -2 9 398 30
06/02/16 Video View Suarez, Eugenio CIN Germen, Gonzalez COL 6 Coors Field PL 456 108.0 27.9 98.0 101 1 0 13 443 30
06/14/16 Video View Gregorius, Didi NYY Germen, Gonzalez COL 6 Coors Field JE 394 111.1 21.5 66.4 54 0 0 4 389 28
06/25/16 Video View Wolters, Tony COL Miller, Shelby ARI 6 Coors Field ND 432 106.5 27.2 72.9 91 4 1 10 417 29
06/27/16 Video View Encarnacion, Edwin TOR Gray, Jon COL 6 Coors Field PL 435 105.9 25.1 95.7 85 -3 1 6 429 29
06/27/16 Video View Gonzalez, Carlos COL Estrada, Marco TOR 6 Coors Field ND 412 106.0 27.3 67.9 83 -4 1 9 405 30
07/21/16 Video View Gonzalez, Carlos COL Foltynewicz, Mike ATL 6 Coors Field ND 444 112.6 22.9 77.0 70 1 0 5 438 29
07/22/16 Video View Arenado, Nolan COL De La Cruz, Joel ATL 6 Coors Field PL 441 105.2 27.9 100.3 97 6 1 11 424 29
07/22/16 Video View Story, Trevor COL Alvarez, Dario ATL 6 Coors Field ND 420 103.9 36.0 111.5 127 10 3 26 383 30
04/10/16 Video View Raburn, Ryan COL Shields, James SD 7 Coors Field ND 413 108.6 27.2 123.3 75 2 0 9 401 30
04/25/16 Video View Joyce, Matt PIT Oberg, Scott COL 7 Coors Field PL 432 106.1 26.6 103.0 82 4 -2 9 421 30
04/27/16 Video View Polanco, Gregory PIT Miller, Justin COL 7 Coors Field PL 446 108.3 25.0 93.9 98 -8 -3 7 445 30
04/27/16 Video View Reynolds, Mark COL Feliz, Neftali PIT 7 Coors Field ND 446 114.9 23.4 106.5 82 -10 -3 7 446 30
05/10/16 Video View Goldschmidt, Paul ARI Germen, Gonzalez COL 7 Coors Field ND 429 106.2 31.8 110.8 110 4 -6 18 411 30
05/15/16 Video View Raburn, Ryan COL Henderson, Jim NYM 7 Coors Field PL 412 101.2 29.4 78.8 95 0 -1 12 402 26
05/28/16 Video View Gonzalez, Carlos COL Osich, Josh SF 7 Coors Field PL 442 108.5 22.4 89.6 79 0 0 3 437 28
05/30/16 Video View Votto, Joey CIN Motte, Jason COL 7 Coors Field JE 380 95.4 32.9 65.7 87 0 0 0 380 29
05/31/16 Video View Blackmon, Charlie COL Diaz, Dayan CIN 7 Coors Field PL 420 102.1 30.8 79.9 106 0 -3 15 407 28
06/02/16 Video View Story, Trevor COL Simon, Alfredo CIN 7 Coors Field PL 397 101.6 29.8 113.7 87 0 -1 11 386 30
06/12/16 Video View Reynolds, Mark COL Quackenbush, Kevin SD 7 Coors Field PL 389 101.8 27.9 63.5 74 0 1 9 378 29
06/24/16 Video View Tomas, Yasmany ARI Motte, Jason COL 7 Coors Field ND 442 109.2 27.9 108.9 93 0 0 12 430 30
06/25/16 Video View Bourn, Michael ARI Miller, Justin COL 7 Coors Field JE 396 106.1 23.6 70.3 62 3 1 5 389 23
06/26/16 Video View Story, Trevor COL Barrett, Jake ARI 7 Coors Field PL 441 109.8 21.5 91.5 69 0 1 1 439 28
07/08/16 Video View Joseph, Tommy PHI McGee, Jake COL 7 Coors Field ND 428 107.8 32.9 119.8 110 0 2 19 407 30
07/10/16 Video View Rupp, Cameron PHI McGee, Jake COL 7 Coors Field PL 451 104.3 32.9 92.1 123 7 6 20 420 27
07/21/16 Video View Reynolds, Mark COL Cervenka, Hunter ATL 7 Coors Field ND 486 114.6 25.8 101.1 94 6 0 12 470 30
04/12/16 Video View Brown, Trevor SF Gurka, Jason COL 8 Coors Field JE 403 104.3 25.2 106.4 73 1 -1 6 397 30
04/13/16 Video View Arenado, Nolan COL Osich, Josh SF 8 Coors Field ND 406 105.6 32.2 118.7 107 -12 -2 17 399 30
04/13/16 Video View Belt, Brandon SF Castro, Miguel COL 8 Coors Field PL 394 102.5 36.4 75.0 140 -15 -3 27 382 27
04/14/16 Video View Belt, Brandon SF Qualls, Chad COL 8 Coors Field JE 379 96.3 30.3 111.0 80 5 0 11 362 7
04/10/16 Video View Story, Trevor COL Maurer, Brandon SD 8 Coors Field PL 429 106.0 28.7 105.1 99 -7 1 13 421 30
04/10/16 Video View Gonzalez, Carlos COL Maurer, Brandon SD 8 Coors Field ND 420 108.9 27.9 61.6 85 -5 0 11 412 30
04/27/16 Video View Parra, Gerardo COL Watson, Tony PIT 8 Coors Field JE 427 106.3 23.1 94.2 80 -1 -1 3 424 27
05/11/16 Video View Arenado, Nolan COL Clippard, Tyler ARI 8 Coors Field ND 399 106.9 27.3 125.3 72 2 -1 9 390 30
05/28/16 Video View Posey, Buster SF Estevez, Carlos COL 8 Coors Field JE 423 102.9 29.7 84.0 109 -11 0 13 418 26
05/29/16 Video View Gonzalez, Carlos COL Osich, Josh SF 8 Coors Field PL 447 106.1 28.5 82.7 103 1 0 13 434 28
05/30/16 Video View Suarez, Eugenio CIN Castro, Miguel COL 8 Coors Field PL 445 108.1 23.4 91.5 84 -1 0 4 439 30
06/01/16 Video View Bruce, Jay CIN De La Rosa, Jorge COL 8 Coors Field PL 427 103.9 27.2 80.6 87 2 -1 9 417 28
06/14/16 Video View Gonzalez, Carlos COL Miller, Andrew NYY 8 Coors Field PL 442 108.0 23.4 87.8 77 0 -4 0 442 29
06/25/16 Video View LeMahieu, DJ COL Collmenter, Josh ARI 8 Coors Field JE/L 424 103.4 26.7 98.6 84 1 0 8 414 29
07/10/16 Video View Franco, Maikel PHI Motte, Jason COL 8 Coors Field ND 462 114.1 28.5 119.6 92 7 4 14 439 30
07/10/16 Video View Gonzalez, Carlos COL Neris, Hector PHI 8 Coors Field ND 475 113.7 27.7 74.8 105 -7 5 15 460 30
07/22/16 Video View Peterson, Jace ATL Motte, Jason COL 8 Coors Field ND 432 109.7 27.7 69.1 95 -14 0 11 428 30
07/23/16 Video View Story, Trevor COL Johnson, Jim ATL 8 Coors Field PL 439 112.5 20.0 94.3 62 0 0 0 439 30
04/08/16 Video View Story, Trevor COL Buchter, Ryan SD 9 Coors Field PL 397 102.5 27.6 111.7 77 1 -1 8 388 30
04/09/16 Video View Myers, Wil SD Qualls, Chad COL 9 Coors Field PL 454 109.9 23.3 92.2 78 1 -1 5 449 30
05/30/16 Video View Duvall, Adam CIN McGee, Jake COL 9 Coors Field JE 380 101.1 26.7 67.1 70 0 -1 7 374 22
05/30/16 Video View Gonzalez, Carlos COL Cingrani, Tony CIN 9 Coors Field ND 469 108.7 28.4 89.9 109 3 -1 14 453 30
06/10/16 Video View Myers, Wil SD McGee, Jake COL 9 Coors Field PL 453 106.5 27.0 86.7 93 4 0 10 439 29
06/24/16 Video View Tomas, Yasmany ARI Estevez, Carlos COL 9 Coors Field JE 391 102.9 25.9 69.3 69 0 0 7 384 25
06/26/16 Video View Reynolds, Mark COL Bracho, Silvino ARI 9 Coors Field ND 461 108.2 28.4 94.3 111 -8 4 14 448 30
06/27/16 Video View Encarnacion, Edwin TOR Motte, Jason COL 9 Coors Field JE 434 108.6 22.9 82.7 70 0 0 3 430 28
07/19/16 Video View Pearce, Steve TB Germen, Gonzalez COL 9 Coors Field PL 429 103.9 29.1 103.6 93 6 -1 12 412 30
07/19/16 Video View Story, Trevor COL Andriese, Matt TB 9 Coors Field JE 437 106.6 24.1 87.8 77 1 -1 5 433 27


About HitTracker | Contact Us
© 2006-2016 HitTrackerOnline